Time;durP1;ratioP1;P1;durP2;ratioP2;P2;SDS_P1;SDS_P2;PMS_P1;PMS_P2;Temp;Humidity;BMP_temperature;BMP_pressure;BME280_temperature;BME280_humidity;BME280_pressure;Samples;Min_cycle;Max_cycle;Signal;HPM_P1;HPM_P2
2022/09/19 00:01:12;;;;;;;5.13;1.30;;;;;;;11.31;100.00;101481.81;6150662;23;21103;-70
2022/09/19 00:03:46;;;;;;;4.33;1.30;;;;;;;11.01;100.00;101460.38;6124518;23;20378;-69
2022/09/19 00:06:15;;;;;;;5.17;1.33;;;;;;;11.21;100.00;101481.28;6126095;23;20373;-69
2022/09/19 00:08:42;;;;;;;6.43;1.83;;;;;;;10.80;100.00;101490.63;6151860;23;20381;-69
2022/09/19 00:11:09;;;;;;;5.53;1.40;;;;;;;10.51;100.00;101432.44;6151387;23;20839;-69
2022/09/19 00:13:36;;;;;;;3.53;1.30;;;;;;;10.28;100.00;101386.09;6149012;23;20400;-69
2022/09/19 00:16:02;;;;;;;7.00;1.93;;;;;;;10.52;100.00;101450.19;6148638;23;20497;-69
2022/09/19 00:18:28;;;;;;;4.70;1.20;;;;;;;10.68;100.00;101489.44;6147020;23;20383;-69
2022/09/19 00:20:54;;;;;;;7.20;1.30;;;;;;;10.74;100.00;101491.38;6149013;23;20433;-69
2022/09/19 00:26:09;;;;;;;5.33;1.43;;;;;;;10.51;100.00;101464.63;6147468;23;20368;-69
2022/09/19 00:28:35;;;;;;;7.60;1.70;;;;;;;10.40;100.00;101451.66;6150545;23;20383;-69
2022/09/19 00:31:02;;;;;;;9.87;1.20;;;;;;;10.66;100.00;101498.69;6146898;23;20389;-69
2022/09/19 00:33:30;;;;;;;5.67;1.80;;;;;;;9.98;100.00;101414.63;6146246;23;20732;-69
2022/09/19 00:36:03;;;;;;;3.53;1.20;;;;;;;10.21;100.00;101489.66;6147838;23;20381;-69
2022/09/19 00:38:29;;;;;;;4.63;1.27;;;;;;;10.16;100.00;101503.63;6148395;23;20365;-69
2022/09/19 00:40:56;;;;;;;2.90;1.10;;;;;;;10.11;100.00;101473.84;6148793;23;20443;-69
2022/09/19 00:43:25;;;;;;;6.17;1.43;;;;;;;10.17;100.00;101484.66;6148758;23;20161;-69
2022/09/19 00:45:51;;;;;;;7.33;1.70;;;;;;;10.16;100.00;101500.94;6147689;23;20449;-69
2022/09/19 00:48:20;;;;;;;3.20;1.33;;;;;;;10.12;100.00;101500.44;6148383;23;20380;-69
2022/09/19 00:50:52;;;;;;;6.30;1.60;;;;;;;10.24;100.00;101483.94;6145828;23;20431;-68
2022/09/19 00:53:22;;;;;;;3.80;1.40;;;;;;;10.61;100.00;101496.53;6148226;23;20766;-69
2022/09/19 00:55:52;;;;;;;4.30;1.50;;;;;;;10.19;100.00;101477.28;6145994;23;20381;-69
2022/09/19 00:58:28;;;;;;;6.07;1.40;;;;;;;9.47;100.00;101409.84;6149400;23;20385;-69
2022/09/19 01:00:56;;;;;;;7.10;1.50;;;;;;;10.29;100.00;101484.25;6145852;23;20960;-69
2022/09/19 01:03:24;;;;;;;4.37;1.47;;;;;;;10.05;100.00;101496.81;6147371;23;20377;-69
2022/09/19 01:06:39;;;;;;;4.77;2.03;;;;;;;10.06;100.00;101511.88;6146827;23;20392;-70
2022/09/19 01:09:17;;;;;;;4.90;1.67;;;;;;;10.02;100.00;101515.13;6138532;23;20427;-69
2022/09/19 01:12:01;;;;;;;4.00;1.47;;;;;;;9.95;100.00;101518.53;6146838;23;20367;-69
2022/09/19 01:14:56;;;;;;;4.67;1.60;;;;;;;9.98;100.00;101517.31;6146893;23;20716;-69
2022/09/19 01:17:48;;;;;;;5.80;1.33;;;;;;;9.90;100.00;101493.25;6149084;23;20366;-69
2022/09/19 01:20:32;;;;;;;5.20;1.60;;;;;;;10.19;100.00;101530.06;6148334;23;20436;-69
2022/09/19 01:23:33;;;;;;;3.40;1.27;;;;;;;10.25;100.00;101512.44;6148715;23;20376;-69
2022/09/19 01:26:33;;;;;;;6.20;1.70;;;;;;;10.09;100.00;101519.56;6148424;23;20440;-69
2022/09/19 01:29:17;;;;;;;6.13;1.50;;;;;;;10.07;100.00;101524.28;6149668;23;20416;-69
2022/09/19 01:31:50;;;;;;;4.10;1.10;;;;;;;9.90;100.00;101504.81;6148942;23;20369;-69
2022/09/19 01:34:26;;;;;;;5.80;1.80;;;;;;;10.04;100.00;101521.97;6146523;23;20388;-69
2022/09/19 01:37:16;;;;;;;3.60;1.20;;;;;;;9.91;100.00;101525.22;6149021;23;20839;-70
2022/09/19 01:39:46;;;;;;;5.90;1.60;;;;;;;9.89;100.00;101527.28;6150646;23;20434;-70
2022/09/19 01:42:20;;;;;;;4.40;1.30;;;;;;;9.26;100.00;101423.88;6150127;23;20381;-69
2022/09/19 01:44:45;;;;;;;4.63;1.53;;;;;;;9.43;100.00;101397.81;6151073;23;20361;-69
2022/09/19 01:47:20;;;;;;;3.97;1.23;;;;;;;10.13;100.00;101525.44;6150473;23;20379;-69
2022/09/19 01:50:08;;;;;;;3.87;1.30;;;;;;;9.95;100.00;101528.38;6125270;23;20180;-69
2022/09/19 01:52:52;;;;;;;5.37;1.30;;;;;;;10.03;100.00;101528.31;6150701;23;20365;-69
2022/09/19 01:55:30;;;;;;;6.23;1.40;;;;;;;9.89;100.00;101492.44;6150910;23;20456;-69
2022/09/19 01:58:18;;;;;;;5.93;1.50;;;;;;;10.22;100.00;101524.34;6149449;23;20440;-69
2022/09/19 02:01:27;;;;;;;4.80;1.67;;;;;;;10.07;100.00;101523.47;6091615;23;20448;-70
2022/09/19 02:04:04;;;;;;;8.23;1.57;;;;;;;9.98;100.00;101525.38;6093174;23;20389;-69
2022/09/19 02:06:37;;;;;;;3.43;1.40;;;;;;;10.09;100.00;101527.59;6148204;23;20365;-69
2022/09/19 02:09:13;;;;;;;4.37;1.47;;;;;;;9.68;100.00;101484.19;6150357;23;20553;-69
2022/09/19 02:11:42;;;;;;;5.03;1.77;;;;;;;10.09;100.00;101532.97;6147556;23;20360;-69
2022/09/19 02:14:16;;;;;;;5.67;1.90;;;;;;;10.13;100.00;101528.09;6148338;23;21102;-69
2022/09/19 02:16:51;;;;;;;4.17;1.40;;;;;;;9.46;100.00;101427.75;6122274;23;20380;-69
2022/09/19 02:19:31;;;;;;;4.20;1.67;;;;;;;9.60;100.00;101460.13;6149096;23;20443;-68
2022/09/19 02:22:03;;;;;;;4.80;1.97;;;;;;;9.50;100.00;101471.91;6149178;23;20753;-69
2022/09/19 02:24:32;;;;;;;6.90;1.93;;;;;;;9.77;100.00;101528.66;6149356;23;20369;-69
2022/09/19 02:27:15;;;;;;;4.43;1.80;;;;;;;9.87;100.00;101520.41;6123275;23;20846;-69
2022/09/19 02:29:48;;;;;;;5.40;1.73;;;;;;;9.61;100.00;101494.78;6125564;23;20424;-69
2022/09/19 02:32:16;;;;;;;5.60;1.40;;;;;;;9.19;100.00;101431.75;6149776;23;20426;-68
2022/09/19 02:34:43;;;;;;;4.77;2.13;;;;;;;9.23;100.00;101453.66;6150794;23;20843;-68
2022/09/19 02:37:21;;;;;;;6.10;1.80;;;;;;;9.45;100.00;101487.66;6151527;23;20468;-69
2022/09/19 02:40:00;;;;;;;5.37;1.97;;;;;;;9.70;100.00;101517.81;6125725;23;20930;-68
2022/09/19 02:43:04;;;;;;;6.03;1.60;;;;;;;10.16;100.00;101539.31;6151069;23;20451;-69
2022/09/19 02:45:33;;;;;;;3.63;1.30;;;;;;;9.86;100.00;101537.47;6124673;23;20720;-68
2022/09/19 02:48:11;;;;;;;6.00;1.60;;;;;;;9.72;100.00;101542.59;6149722;23;20385;-69
2022/09/19 02:50:58;;;;;;;6.40;1.63;;;;;;;9.71;100.00;101538.25;6150751;23;20397;-69
2022/09/19 02:53:27;;;;;;;4.10;1.40;;;;;;;8.85;100.00;101397.28;6150403;23;20357;-69
2022/09/19 02:55:59;;;;;;;7.93;1.97;;;;;;;9.83;100.00;101546.72;6150967;23;20836;-69
2022/09/19 02:58:27;;;;;;;8.43;1.60;;;;;;;9.60;100.00;101535.13;6151070;23;20365;-69
2022/09/19 03:01:07;;;;;;;4.40;2.03;;;;;;;9.23;100.00;101462.53;6150021;23;20432;-69
2022/09/19 03:04:18;;;;;;;7.50;2.10;;;;;;;9.60;100.00;101551.19;6124211;23;20391;-68
2022/09/19 03:07:07;;;;;;;6.17;1.50;;;;;;;9.73;100.00;101549.63;6123895;23;20950;-68
2022/09/19 03:09:32;;;;;;;5.40;1.73;;;;;;;9.40;100.00;101500.75;6149703;23;20397;-69
2022/09/19 03:12:08;;;;;;;10.00;1.83;;;;;;;9.67;100.00;101547.66;6150937;23;20384;-69
2022/09/19 03:14:35;;;;;;;6.97;2.40;;;;;;;9.17;100.00;101455.19;6150130;23;20141;-69
2022/09/19 03:17:01;;;;;;;6.30;1.73;;;;;;;9.69;100.00;101547.47;6150574;23;20377;-69
2022/09/19 03:19:30;;;;;;;6.33;1.80;;;;;;;9.40;100.00;101497.22;6149766;23;20426;-69
2022/09/19 03:21:56;;;;;;;6.27;2.07;;;;;;;9.60;100.00;101556.53;6147821;23;20468;-69
2022/09/19 03:24:22;;;;;;;4.50;1.60;;;;;;;9.63;100.00;101554.38;6124453;23;21148;-69
2022/09/19 03:26:48;;;;;;;8.07;1.97;;;;;;;9.67;100.00;101579.78;6150110;23;20779;-69
2022/09/19 03:29:15;;;;;;;4.03;1.83;;;;;;;9.64;100.00;101536.47;6148851;23;20425;-69
2022/09/19 03:31:42;;;;;;;10.17;2.27;;;;;;;9.45;100.00;101479.63;6124185;23;20157;-69
2022/09/19 03:34:08;;;;;;;6.07;2.30;;;;;;;9.96;100.00;101567.59;6124308;23;20389;-68
2022/09/19 03:36:34;;;;;;;4.13;1.60;;;;;;;9.53;100.00;101523.44;6123679;23;20399;-68
2022/09/19 03:39:01;;;;;;;6.73;2.10;;;;;;;9.89;100.00;101556.75;6151251;23;20451;-69
2022/09/19 03:41:27;;;;;;;5.03;1.63;;;;;;;9.78;100.00;101559.81;6151135;23;20192;-68
2022/09/19 03:43:53;;;;;;;6.13;1.47;;;;;;;9.52;100.00;101479.78;6151930;23;20373;-69
2022/09/19 03:46:19;;;;;;;6.87;1.53;;;;;;;9.93;100.00;101563.41;6150768;23;20391;-69
2022/09/19 03:48:46;;;;;;;6.80;1.93;;;;;;;9.94;100.00;101559.72;6151843;23;20149;-69
2022/09/19 03:51:16;;;;;;;12.60;2.30;;;;;;;9.32;100.00;101486.56;6152049;23;20440;-69
2022/09/19 03:53:42;;;;;;;7.90;1.87;;;;;;;9.33;100.00;101472.16;6151243;23;20448;-69
2022/09/19 03:56:10;;;;;;;6.33;1.47;;;;;;;9.25;100.00;101416.81;6152188;23;20409;-69
2022/09/19 03:58:36;;;;;;;5.17;1.90;;;;;;;10.08;100.00;101543.88;6151005;23;20385;-70
2022/09/19 04:01:02;;;;;;;6.40;2.23;;;;;;;10.13;100.00;101577.19;6150538;23;20430;-70
2022/09/19 04:03:27;;;;;;;9.43;2.00;;;;;;;9.81;100.00;101521.97;6150658;23;20412;-70
2022/09/19 04:05:53;;;;;;;7.70;2.20;;;;;;;9.75;100.00;101509.28;6148597;23;20154;-69
2022/09/19 04:08:20;;;;;;;7.23;2.10;;;;;;;10.23;100.00;101585.00;6148771;23;20241;-69
2022/09/19 04:10:45;;;;;;;7.57;2.17;;;;;;;10.00;100.00;101531.38;6148328;23;20236;-69
2022/09/19 04:13:12;;;;;;;3.83;1.57;;;;;;;10.45;100.00;101586.03;6147980;23;20816;-69
2022/09/19 04:15:38;;;;;;;8.03;1.73;;;;;;;10.07;100.00;101486.78;6146289;23;20283;-68
2022/09/19 04:18:04;;;;;;;8.00;1.50;;;;;;;10.61;100.00;101574.34;6148999;23;20863;-68
2022/09/19 04:20:30;;;;;;;11.60;2.50;;;;;;;10.19;100.00;101514.81;6148982;23;20475;-69
2022/09/19 04:23:00;;;;;;;11.07;2.27;;;;;;;10.81;100.00;101605.00;6146504;23;20464;-69
2022/09/19 04:25:32;;;;;;;9.00;2.23;;;;;;;10.08;100.00;101492.97;6147748;23;20381;-68
2022/09/19 04:28:00;;;;;;;14.63;4.20;;;;;;;11.06;100.00;101602.09;6120965;23;20396;-68
2022/09/19 04:30:25;;;;;;;10.67;2.40;;;;;;;10.70;100.00;101527.63;6146088;23;20392;-68
2022/09/19 04:32:51;;;;;;;11.87;2.57;;;;;;;11.35;100.00;101605.84;6143941;23;20455;-69
2022/09/19 04:35:18;;;;;;;9.60;2.27;;;;;;;11.44;100.00;101607.41;6147871;23;20161;-69
2022/09/19 04:37:44;;;;;;;17.60;2.93;;;;;;;10.97;100.00;101520.81;6145371;23;20674;-69
2022/09/19 04:40:09;;;;;;;11.27;2.50;;;;;;;11.37;100.00;101580.47;6145736;23;20503;-69
2022/09/19 04:42:35;;;;;;;9.33;3.03;;;;;;;10.19;100.00;101412.94;6143815;23;20176;-66
2022/09/19 04:45:01;;;;;;;9.60;2.40;;;;;;;11.23;100.00;101570.56;6121868;23;20188;-66
2022/09/19 04:47:28;;;;;;;8.10;2.10;;;;;;;11.12;100.00;101549.53;6141649;23;20708;-66
2022/09/19 04:49:55;;;;;;;13.77;2.63;;;;;;;11.34;100.00;101606.81;6146329;23;20169;-67
2022/09/19 04:52:21;;;;;;;8.33;2.40;;;;;;;11.23;100.00;101575.91;6145372;23;20388;-67
2022/09/19 04:54:47;;;;;;;9.10;2.20;;;;;;;11.51;100.00;101627.13;6149224;23;20389;-69
2022/09/19 04:57:12;;;;;;;9.17;2.03;;;;;;;10.79;100.00;101531.91;6148073;23;20157;-69
2022/09/19 04:59:37;;;;;;;12.73;2.40;;;;;;;10.91;100.00;101528.78;6098265;23;1195126;-69
2022/09/19 05:02:08;;;;;;;9.90;3.03;;;;;;;11.28;100.00;101603.03;6122593;23;20427;-68
2022/09/19 05:04:35;;;;;;;12.90;2.40;;;;;;;11.49;100.00;101634.56;6150865;23;20141;-68
2022/09/19 05:07:01;;;;;;;6.97;1.97;;;;;;;11.23;100.00;101595.53;6149287;23;20388;-69
2022/09/19 05:09:26;;;;;;;7.17;2.00;;;;;;;10.74;100.00;101530.81;6149463;23;20401;-69
2022/09/19 05:11:55;;;;;;;6.70;2.20;;;;;;;11.00;100.00;101579.50;6122946;23;20392;-69
2022/09/19 05:14:21;;;;;;;8.33;2.37;;;;;;;11.32;100.00;101641.94;6149395;23;20153;-69
2022/09/19 05:16:49;;;;;;;8.30;2.13;;;;;;;11.59;100.00;101650.38;6148969;23;20866;-69
2022/09/19 05:19:15;;;;;;;9.93;2.03;;;;;;;11.37;100.00;101639.56;6149360;23;20749;-69
2022/09/19 05:21:40;;;;;;;12.30;2.17;;;;;;;11.26;100.00;101619.34;6149752;23;20419;-69
2022/09/19 05:24:06;;;;;;;9.87;2.93;;;;;;;10.92;100.00;101528.59;6150924;23;20370;-69
2022/09/19 05:26:31;;;;;;;5.77;1.90;;;;;;;11.56;100.00;101637.31;6148394;23;20623;-69
2022/09/19 05:28:57;;;;;;;8.60;2.57;;;;;;;11.63;100.00;101646.28;6150331;23;20172;-68
2022/09/19 05:31:22;;;;;;;7.20;2.10;;;;;;;11.39;100.00;101602.56;6148374;23;20153;-69
2022/09/19 05:33:48;;;;;;;14.40;2.23;;;;;;;11.89;100.00;101657.44;6148866;23;20160;-69
2022/09/19 05:36:14;;;;;;;9.63;2.20;;;;;;;11.89;100.00;101646.69;6149043;23;20216;-68
2022/09/19 05:38:40;;;;;;;11.37;2.67;;;;;;;11.50;100.00;101599.41;6150548;23;20180;-69
2022/09/19 05:41:06;;;;;;;13.87;2.47;;;;;;;11.94;100.00;101643.41;6147485;23;20171;-68
2022/09/19 05:43:32;;;;;;;7.00;2.33;;;;;;;11.74;100.00;101644.00;6149595;23;20385;-68
2022/09/19 05:45:58;;;;;;;8.00;2.50;;;;;;;11.02;100.00;101501.47;6149982;23;20398;-68
2022/09/19 05:48:24;;;;;;;8.43;1.93;;;;;;;12.07;100.00;101646.28;6150094;23;20831;-68
2022/09/19 05:50:51;;;;;;;12.80;2.40;;;;;;;11.98;100.00;101634.81;6148625;23;20175;-68
2022/09/19 05:56:04;;;;;;;8.37;2.33;;;;;;;11.83;100.00;101647.41;6149736;23;20360;-69
2022/09/19 05:58:30;;;;;;;7.37;2.27;;;;;;;12.06;100.00;101660.72;6148941;23;20476;-69
2022/09/19 06:00:56;;;;;;;11.27;2.57;;;;;;;12.16;100.00;101652.38;6148714;23;20922;-68
2022/09/19 06:03:22;;;;;;;8.93;2.23;;;;;;;11.70;100.00;101574.66;6150977;23;20388;-68
2022/09/19 06:05:50;;;;;;;8.17;1.97;;;;;;;12.17;100.00;101637.91;6147956;23;20153;-68
2022/09/19 06:08:17;;;;;;;9.77;2.33;;;;;;;12.11;100.00;101623.34;6125314;23;20157;-69
2022/09/19 06:10:44;;;;;;;9.03;2.63;;;;;;;12.33;100.00;101659.19;6152232;23;20400;-68
2022/09/19 06:13:15;;;;;;;9.07;2.10;;;;;;;12.29;100.00;101649.81;6150424;23;20383;-68
2022/09/19 06:15:41;;;;;;;9.10;2.30;;;;;;;12.33;100.00;101659.19;6150943;23;21227;-68
2022/09/19 06:18:09;;;;;;;10.03;2.57;;;;;;;12.00;100.00;101613.09;6147224;23;20412;-68
2022/09/19 06:20:34;;;;;;;5.50;1.70;;;;;;;12.29;100.00;101665.97;6151203;23;20679;-68
2022/09/19 06:23:02;;;;;;;9.20;2.40;;;;;;;12.34;100.00;101652.78;6150888;23;20408;-69
2022/09/19 06:25:28;;;;;;;10.10;2.47;;;;;;;11.61;100.00;101535.50;6152239;23;20161;-68
2022/09/19 06:27:59;;;;;;;9.73;2.93;;;;;;;12.46;100.00;101668.44;6149367;23;20405;-68
2022/09/19 06:30:25;;;;;;;12.27;2.93;;;;;;;12.53;100.00;101670.16;6150559;23;20393;-68
2022/09/19 06:32:51;;;;;;;14.83;2.70;;;;;;;12.23;100.00;101615.63;6151374;23;20865;-69
2022/09/19 06:35:17;;;;;;;14.47;2.67;;;;;;;12.33;100.00;101610.78;6150419;23;20408;-68
2022/09/19 06:37:42;;;;;;;12.67;2.63;;;;;;;12.84;100.00;101675.25;6151716;23;20434;-69
2022/09/19 06:40:08;;;;;;;11.93;3.27;;;;;;;12.81;100.00;101655.94;6151664;23;20420;-68
2022/09/19 06:42:33;;;;;;;7.70;2.50;;;;;;;12.43;100.00;101570.91;6150370;23;20180;-69
2022/09/19 06:44:59;;;;;;;7.77;2.00;;;;;;;13.02;100.00;101682.84;6151793;23;20714;-68
2022/09/19 06:47:24;;;;;;;8.47;2.20;;;;;;;12.36;100.00;101566.53;6123943;23;20650;-68
2022/09/19 06:49:50;;;;;;;11.13;2.10;;;;;;;12.32;100.00;101538.31;6124942;23;20181;-69
2022/09/19 06:52:15;;;;;;;8.20;2.03;;;;;;;12.88;100.00;101617.28;6150904;23;20158;-68
2022/09/19 06:54:41;;;;;;;10.10;2.00;;;;;;;13.28;100.00;101668.78;6151991;23;20652;-68
2022/09/19 06:57:07;;;;;;;8.90;2.20;;;;;;;13.43;100.00;101682.16;6150446;23;20767;-68
2022/09/19 06:59:32;;;;;;;7.03;2.10;;;;;;;13.54;100.00;101675.38;6149769;23;20271;-68
2022/09/19 07:01:58;;;;;;;10.73;3.30;;;;;;;13.30;100.00;101666.72;6146187;23;20412;-69
2022/09/19 07:04:24;;;;;;;15.43;2.80;;;;;;;12.28;100.00;101548.63;6146342;23;20204;-71
2022/09/19 07:06:50;;;;;;;10.53;2.27;;;;;;;12.75;100.00;101605.56;6123454;23;20389;-71
2022/09/19 07:09:15;;;;;;;10.83;1.87;;;;;;;13.08;100.00;101649.75;6124298;23;20157;-70
2022/09/19 07:11:41;;;;;;;7.87;2.40;;;;;;;13.35;100.00;101685.00;6150749;23;20227;-70
2022/09/19 07:14:06;;;;;;;6.80;1.90;;;;;;;13.45;100.00;101707.06;6149425;23;20160;-69
2022/09/19 07:16:32;;;;;;;10.30;2.70;;;;;;;13.28;100.00;101671.47;6122741;23;20161;-71
2022/09/19 07:18:57;;;;;;;7.40;2.20;;;;;;;13.48;100.00;101709.34;6124257;23;20676;-70
2022/09/19 07:21:23;;;;;;;6.43;2.30;;;;;;;13.28;100.00;101668.78;6151686;23;20211;-70
2022/09/19 07:23:49;;;;;;;11.67;2.30;;;;;;;13.40;100.00;101714.06;6149111;23;20563;-70
2022/09/19 07:26:15;;;;;;;7.07;2.20;;;;;;;13.36;100.00;101723.53;6150776;23;20157;-70
2022/09/19 07:28:40;;;;;;;15.70;3.30;;;;;;;13.32;100.00;101721.25;6152171;23;20384;-69
2022/09/19 07:31:06;;;;;;;5.17;1.93;;;;;;;13.39;100.00;101723.97;6126672;23;20149;-71
2022/09/19 07:33:32;;;;;;;16.70;3.20;;;;;;;13.50;100.00;101733.41;6125493;23;20177;-72
2022/09/19 07:35:58;;;;;;;14.03;2.80;;;;;;;13.34;100.00;101732.66;6151541;23;20225;-69
2022/09/19 07:38:24;;;;;;;11.60;2.20;;;;;;;13.14;100.00;101710.09;6126830;23;20437;-71
2022/09/19 07:40:50;;;;;;;10.07;2.30;;;;;;;12.96;100.00;101678.25;6152358;23;20169;-70
2022/09/19 07:43:16;;;;;;;7.73;1.97;;;;;;;13.31;100.00;101716.88;6151493;23;20780;-70
2022/09/19 07:45:51;;;;;;;6.63;2.00;;;;;;;13.45;100.00;101755.56;6126979;23;20158;-70
2022/09/19 07:48:18;;;;;;;11.23;1.80;;;;;;;13.36;100.00;101737.84;6152606;23;20467;-71
2022/09/19 07:50:44;;;;;;;10.60;2.40;;;;;;;13.45;100.00;101728.59;6150302;23;20459;-70
2022/09/19 07:53:15;;;;;;;5.00;1.30;;;;;;;13.62;100.00;101745.28;6151839;23;20401;-71
2022/09/19 07:55:41;;;;;;;7.73;2.13;;;;;;;13.67;100.00;101760.88;6152667;23;20361;-70
2022/09/19 07:58:10;;;;;;;9.83;2.27;;;;;;;13.75;100.00;101750.78;6151477;23;20393;-70
2022/09/19 08:00:36;;;;;;;6.83;2.43;;;;;;;13.51;100.00;101710.78;6151852;23;20416;-70
2022/09/19 08:03:13;;;;;;;9.10;2.10;;;;;;;13.87;100.00;101736.75;6151954;23;20400;-70
2022/09/19 08:05:41;;;;;;;8.57;2.27;;;;;;;14.00;100.00;101755.69;6124669;23;20392;-70
2022/09/19 08:08:09;;;;;;;8.27;2.30;;;;;;;13.96;100.00;101759.81;6126260;23;20585;-70
2022/09/19 08:10:36;;;;;;;7.10;1.90;;;;;;;13.58;100.00;101717.06;6153046;23;20381;-71
2022/09/19 08:13:03;;;;;;;11.23;1.70;;;;;;;13.84;100.00;101756.03;6125414;23;20415;-71
2022/09/19 08:15:29;;;;;;;4.63;1.40;;;;;;;13.71;100.00;101754.06;6123210;23;20399;-71
2022/09/19 08:18:03;;;;;;;9.23;3.10;;;;;;;13.67;100.00;101758.19;6126054;23;20393;-71
2022/09/19 08:20:31;;;;;;;5.77;2.00;;;;;;;13.34;100.00;101711.09;6149111;23;20862;-70
2022/09/19 08:22:58;;;;;;;4.77;1.67;;;;;;;13.82;100.00;101776.97;6125836;23;20892;-70
2022/09/19 08:25:30;;;;;;;7.10;1.60;;;;;;;13.86;100.00;101778.25;6125258;23;20399;-70
2022/09/19 08:27:56;;;;;;;7.90;2.00;;;;;;;13.96;100.00;101779.53;6126197;23;20381;-70
2022/09/19 08:30:26;;;;;;;9.43;2.57;;;;;;;13.92;100.00;101772.88;6151814;23;20712;-70
2022/09/19 08:32:52;;;;;;;6.70;2.00;;;;;;;14.13;100.00;101787.31;6125866;23;20519;-70
2022/09/19 08:35:19;;;;;;;11.77;3.10;;;;;;;13.83;100.00;101730.94;6150551;23;20373;-70
2022/09/19 08:37:46;;;;;;;14.27;2.93;;;;;;;14.04;100.00;101748.06;6152137;23;20161;-70
2022/09/19 08:40:21;;;;;;;5.90;2.00;;;;;;;14.35;100.00;101794.28;6151656;23;20421;-70
2022/09/19 08:43:05;;;;;;;15.47;3.67;;;;;;;14.29;100.00;101796.94;6125816;23;20415;-70
2022/09/19 08:45:41;;;;;;;10.93;2.80;;;;;;;14.31;100.00;101809.19;6151557;23;20504;-70
2022/09/19 08:48:13;;;;;;;13.67;2.60;;;;;;;14.16;100.00;101806.63;6150713;23;20757;-70
2022/09/19 08:50:44;;;;;;;8.53;1.93;;;;;;;13.94;100.00;101810.44;6151794;23;20365;-70
2022/09/19 08:53:16;;;;;;;7.87;1.97;;;;;;;13.94;100.00;101830.16;6125424;23;20882;-69
2022/09/19 08:55:44;;;;;;;9.13;2.60;;;;;;;13.52;100.00;101739.44;6150428;23;20375;-69
2022/09/19 08:58:18;;;;;;;9.77;2.57;;;;;;;13.82;100.00;101807.44;6125132;23;20417;-69
2022/09/19 09:00:46;;;;;;;7.50;2.00;;;;;;;13.90;100.00;101828.06;6149276;23;20413;-70
2022/09/19 09:03:20;;;;;;;8.63;2.37;;;;;;;13.86;100.00;101829.47;6125084;23;20415;-70
2022/09/19 09:06:15;;;;;;;5.70;2.10;;;;;;;13.78;100.00;101831.28;6125911;23;20403;-70
2022/09/19 09:09:00;;;;;;;10.20;2.30;;;;;;;11.58;100.00;101542.06;6152050;23;20372;-70
2022/09/19 09:11:48;;;;;;;6.90;1.90;;;;;;;13.48;100.00;101789.34;6125225;23;20376;-70
2022/09/19 09:14:26;;;;;;;11.07;2.40;;;;;;;13.79;100.00;101829.41;6124947;23;20412;-70
2022/09/19 09:17:17;;;;;;;8.00;2.30;;;;;;;13.99;100.00;101827.69;6125461;23;20799;-71
2022/09/19 09:20:28;;;;;;;5.30;2.07;;;;;;;14.18;100.00;101823.47;6123988;23;20451;-71
2022/09/19 09:23:20;;;;;;;10.53;2.67;;;;;;;14.54;100.00;101817.03;6132798;23;20417;-71
2022/09/19 09:25:47;;;;;;;11.67;3.50;;;;;;;14.71;100.00;101811.28;6125565;23;20770;-70
2022/09/19 09:28:28;;;;;;;12.70;3.20;;;;;;;15.03;100.00;101798.91;6151641;23;20801;-69
2022/09/19 09:31:07;;;;;;;12.90;2.40;;;;;;;14.36;100.00;101693.38;6151105;23;20369;-69
2022/09/19 09:33:37;;;;;;;15.30;3.30;;;;;;;15.04;100.00;101790.59;6149860;23;20403;-68
2022/09/19 09:36:15;;;;;;;10.20;2.30;;;;;;;14.91;100.00;101780.59;6125714;23;20459;-69
2022/09/19 09:38:51;;;;;;;13.27;2.93;;;;;;;14.53;100.00;101779.44;6151587;23;20859;-70
2022/09/19 09:41:45;;;;;;;11.90;2.60;;;;;;;14.73;100.00;101788.44;6151614;23;20443;-70
2022/09/19 09:44:12;;;;;;;12.07;2.43;;;;;;;14.97;100.00;101781.63;6124673;23;20444;-70
2022/09/19 09:46:50;;;;;;;10.87;2.70;;;;;;;14.99;100.00;101782.28;6151356;23;20412;-70
2022/09/19 09:49:18;;;;;;;7.70;2.00;;;;;;;15.01;100.00;101780.19;6151005;23;20383;-71
2022/09/19 09:52:03;;;;;;;9.77;1.90;;;;;;;15.19;100.00;101779.59;6123857;23;21023;-70
2022/09/19 09:58:27;;;;;;;8.80;2.50;;;;;;;15.30;100.00;101740.28;6116149;23;20505;-69
2022/09/19 10:04:38;;;;;;;9.60;2.20;;;;;;;15.65;100.00;101767.97;6145669;23;20416;-70
2022/09/19 10:07:13;;;;;;;8.50;2.33;;;;;;;15.88;100.00;101770.25;6116106;23;20902;-70
2022/09/19 10:09:45;;;;;;;12.23;3.17;;;;;;;15.54;100.00;101769.41;6120119;23;20400;-70
2022/09/19 10:12:21;;;;;;;8.80;2.47;;;;;;;15.34;100.00;101782.09;6149248;23;20483;-70
2022/09/19 10:14:47;;;;;;;6.87;1.73;;;;;;;15.12;100.00;101781.44;6147786;23;20369;-70
2022/09/19 10:17:17;;;;;;;8.10;2.10;;;;;;;15.13;100.00;101777.72;6120803;23;20400;-70
2022/09/19 10:19:46;;;;;;;6.63;1.77;;;;;;;15.32;100.00;101773.38;6146904;23;20373;-69
2022/09/19 10:22:17;;;;;;;6.37;1.90;;;;;;;15.48;100.00;101772.13;6146783;23;20427;-71
2022/09/19 10:24:51;;;;;;;10.00;2.30;;;;;;;15.66;100.00;101776.91;6117777;23;20495;-70
2022/09/19 10:27:23;;;;;;;9.57;2.47;;;;;;;15.93;100.00;101764.19;6123505;23;20399;-69
2022/09/19 10:30:26;;;;;;;7.10;2.40;;;;;;;15.66;100.00;101745.28;6123537;23;20730;-69
2022/09/19 10:32:52;;;;;;;12.43;2.67;;;;;;;15.64;100.00;101779.78;6146277;23;20487;-69
2022/09/19 10:35:27;;;;;;;8.70;2.33;;;;;;;15.55;100.00;101784.59;6151427;23;20384;-69
2022/09/19 10:38:10;;;;;;;13.03;2.70;;;;;;;15.64;100.00;101782.50;6120741;23;20391;-69
2022/09/19 10:40:35;;;;;;;10.70;2.30;;;;;;;15.66;100.00;101780.44;6149423;23;20547;-69
2022/09/19 10:43:01;;;;;;;11.93;2.70;;;;;;;15.33;100.00;101723.66;6149351;23;20428;-69
2022/09/19 10:45:36;;;;;;;13.37;2.93;;;;;;;15.87;100.00;101775.84;6122103;23;20161;-69
2022/09/19 10:48:11;;;;;;;10.80;2.47;;;;;;;15.82;100.00;101779.19;6122792;23;20639;-69
2022/09/19 10:50:50;;;;;;;8.67;2.20;;;;;;;15.32;100.00;101759.84;6125554;23;20853;-70
2022/09/19 10:53:27;;;;;;;13.57;2.70;;;;;;;15.35;100.00;101786.47;6150499;23;20755;-69
2022/09/19 10:55:56;;;;;;;8.10;2.23;;;;;;;15.31;100.00;101787.94;6148227;23;20423;-69
2022/09/19 10:58:27;;;;;;;4.73;1.93;;;;;;;15.38;100.00;101757.13;6147903;23;20392;-69
2022/09/19 11:01:02;;;;;;;7.17;2.40;;;;;;;15.70;100.00;101749.25;6125375;23;20428;-69
2022/09/19 11:03:39;;;;;;;8.63;2.20;;;;;;;16.07;100.00;101781.22;6123129;23;20887;-69
2022/09/19 11:06:16;;;;;;;9.33;2.00;;;;;;;15.89;100.00;101790.84;6152429;23;20361;-69
2022/09/19 11:08:47;;;;;;;10.60;2.13;;;;;;;15.99;100.00;101799.34;6150351;23;20393;-69
2022/09/19 11:11:25;;;;;;;8.93;2.10;;;;;;;16.11;100.00;101787.84;6125135;23;20377;-69
2022/09/19 11:14:22;;;;;;;8.00;2.17;;;;;;;16.43;100.00;101786.09;6150944;23;20431;-69
2022/09/19 11:16:58;;;;;;;7.57;2.40;;;;;;;16.48;100.00;101795.22;6149397;23;20779;-69
2022/09/19 11:19:32;;;;;;;9.90;2.47;;;;;;;15.89;100.00;101774.59;6149323;23;20403;-69
2022/09/19 11:22:22;;;;;;;8.00;2.77;;;;;;;15.65;100.00;101783.31;6149705;23;20437;-68
2022/09/19 11:24:59;;;;;;;9.33;2.80;;;;;;;15.54;100.00;101761.31;6149652;23;20444;-69
2022/09/19 11:27:59;;;;;;;6.90;2.43;;;;;;;15.90;100.00;101800.59;6123565;23;20770;-69
2022/09/19 11:30:30;;;;;;;6.37;1.77;;;;;;;15.92;100.00;101757.94;6121906;23;20381;-69
2022/09/19 11:33:24;;;;;;;8.53;2.33;;;;;;;15.66;100.00;101683.06;6123809;23;20415;-69
2022/09/19 11:36:14;;;;;;;10.37;2.50;;;;;;;16.57;100.00;101797.69;6149285;23;20800;-70
2022/09/19 11:39:01;;;;;;;9.60;1.87;;;;;;;16.27;100.00;101777.41;6121500;23;20388;-68
2022/09/19 11:41:47;;;;;;;9.80;2.00;;;;;;;16.15;100.00;101808.06;6150000;23;20409;-69
2022/09/19 11:44:43;;;;;;;7.40;2.00;;;;;;;16.20;100.00;101775.75;6150719;23;20464;-70
2022/09/19 11:47:35;;;;;;;6.50;2.03;;;;;;;16.29;100.00;101782.63;6123174;23;20380;-69
2022/09/19 11:50:25;;;;;;;6.23;1.33;;;;;;;16.41;100.00;101793.59;6124932;23;21045;-69
2022/09/19 11:52:50;;;;;;;9.07;2.17;;;;;;;16.51;100.00;101785.84;6149614;23;20938;-69